sensor_id;sensor_type;location;lat;lon;timestamp;pressure;altitude;pressure_sealevel;temperature;humidity
20368;BME280;10343;52.402;9.796;2023-01-27T00:01:06;101621.84;;;6.05;100.00
20368;BME280;10343;52.402;9.796;2023-01-27T00:03:35;101618.38;;;6.10;100.00
20368;BME280;10343;52.402;9.796;2023-01-27T00:06:06;101627.94;;;6.01;100.00
20368;BME280;10343;52.402;9.796;2023-01-27T00:08:37;101608.38;;;5.78;100.00
20368;BME280;10343;52.402;9.796;2023-01-27T00:11:06;101614.19;;;6.29;100.00
20368;BME280;10343;52.402;9.796;2023-01-27T00:13:52;101617.66;;;6.25;100.00
20368;BME280;10343;52.402;9.796;2023-01-27T00:16:20;101605.22;;;6.09;100.00
20368;BME280;10343;52.402;9.796;2023-01-27T00:18:48;101601.75;;;6.16;100.00
20368;BME280;10343;52.402;9.796;2023-01-27T00:21:18;101588.63;;;6.22;100.00
20368;BME280;10343;52.402;9.796;2023-01-27T00:24:04;101601.28;;;6.65;100.00
20368;BME280;10343;52.402;9.796;2023-01-27T00:26:53;101596.38;;;6.04;100.00
20368;BME280;10343;52.402;9.796;2023-01-27T00:29:21;101594.69;;;6.10;100.00
20368;BME280;10343;52.402;9.796;2023-01-27T00:31:51;101581.81;;;5.58;100.00
20368;BME280;10343;52.402;9.796;2023-01-27T00:34:37;101578.03;;;5.35;100.00
20368;BME280;10343;52.402;9.796;2023-01-27T00:37:08;101583.38;;;6.22;100.00
20368;BME280;10343;52.402;9.796;2023-01-27T00:39:37;101587.41;;;5.89;100.00
20368;BME280;10343;52.402;9.796;2023-01-27T00:42:08;101604.28;;;6.05;100.00
20368;BME280;10343;52.402;9.796;2023-01-27T00:44:37;101595.78;;;6.33;100.00
20368;BME280;10343;52.402;9.796;2023-01-27T00:47:25;101608.00;;;6.27;100.00
20368;BME280;10343;52.402;9.796;2023-01-27T00:49:52;101611.72;;;6.50;100.00
20368;BME280;10343;52.402;9.796;2023-01-27T00:52:22;101608.03;;;6.29;100.00
20368;BME280;10343;52.402;9.796;2023-01-27T00:54:50;101600.06;;;6.21;100.00
20368;BME280;10343;52.402;9.796;2023-01-27T00:57:18;101611.28;;;6.03;100.00
20368;BME280;10343;52.402;9.796;2023-01-27T00:59:46;101614.38;;;5.68;100.00
20368;BME280;10343;52.402;9.796;2023-01-27T01:02:16;101610.72;;;5.57;100.00
20368;BME280;10343;52.402;9.796;2023-01-27T01:04:46;101612.03;;;5.94;100.00
20368;BME280;10343;52.402;9.796;2023-01-27T01:07:14;101622.53;;;5.91;100.00
20368;BME280;10343;52.402;9.796;2023-01-27T01:09:44;101627.03;;;6.00;100.00
20368;BME280;10343;52.402;9.796;2023-01-27T01:12:11;101625.13;;;5.88;100.00
20368;BME280;10343;52.402;9.796;2023-01-27T01:14:39;101629.50;;;5.86;100.00
20368;BME280;10343;52.402;9.796;2023-01-27T01:17:07;101624.06;;;5.71;100.00
20368;BME280;10343;52.402;9.796;2023-01-27T01:19:36;101620.88;;;5.27;100.00
20368;BME280;10343;52.402;9.796;2023-01-27T01:22:04;101624.59;;;6.17;100.00
20368;BME280;10343;52.402;9.796;2023-01-27T01:24:33;101635.28;;;6.33;100.00
20368;BME280;10343;52.402;9.796;2023-01-27T01:27:02;101642.22;;;6.24;100.00
20368;BME280;10343;52.402;9.796;2023-01-27T01:29:30;101639.41;;;6.07;100.00
20368;BME280;10343;52.402;9.796;2023-01-27T01:32:17;101647.66;;;6.43;100.00
20368;BME280;10343;52.402;9.796;2023-01-27T01:35:23;101642.28;;;6.32;100.00
20368;BME280;10343;52.402;9.796;2023-01-27T01:38:47;101639.47;;;6.12;100.00
20368;BME280;10343;52.402;9.796;2023-01-27T01:46:50;101628.06;;;6.13;100.00
20368;BME280;10343;52.402;9.796;2023-01-27T01:49:40;101630.66;;;6.11;100.00
20368;BME280;10343;52.402;9.796;2023-01-27T01:53:26;101634.38;;;6.31;100.00
20368;BME280;10343;52.402;9.796;2023-01-27T01:55:57;101639.16;;;5.86;100.00
20368;BME280;10343;52.402;9.796;2023-01-27T01:58:27;101619.44;;;5.53;100.00
20368;BME280;10343;52.402;9.796;2023-01-27T02:00:56;101627.25;;;6.20;100.00
20368;BME280;10343;52.402;9.796;2023-01-27T02:03:28;101618.63;;;5.58;100.00
20368;BME280;10343;52.402;9.796;2023-01-27T02:05:56;101622.41;;;5.79;100.00
20368;BME280;10343;52.402;9.796;2023-01-27T02:08:37;101622.41;;;5.81;100.00
20368;BME280;10343;52.402;9.796;2023-01-27T02:14:17;101623.03;;;5.58;100.00
20368;BME280;10343;52.402;9.796;2023-01-27T02:16:45;101627.63;;;5.74;100.00
20368;BME280;10343;52.402;9.796;2023-01-27T02:19:20;101618.78;;;5.71;100.00
20368;BME280;10343;52.402;9.796;2023-01-27T02:21:51;101629.28;;;6.46;100.00
20368;BME280;10343;52.402;9.796;2023-01-27T02:24:23;101634.34;;;6.27;100.00
20368;BME280;10343;52.402;9.796;2023-01-27T02:27:11;101630.75;;;6.18;100.00
20368;BME280;10343;52.402;9.796;2023-01-27T02:29:44;101630.97;;;6.42;100.00
20368;BME280;10343;52.402;9.796;2023-01-27T02:32:22;101629.69;;;6.02;100.00
20368;BME280;10343;52.402;9.796;2023-01-27T02:34:55;101632.69;;;6.40;100.00
20368;BME280;10343;52.402;9.796;2023-01-27T02:37:26;101632.53;;;6.22;100.00
20368;BME280;10343;52.402;9.796;2023-01-27T02:39:57;101625.19;;;5.93;100.00
20368;BME280;10343;52.402;9.796;2023-01-27T02:42:30;101623.72;;;6.18;100.00
20368;BME280;10343;52.402;9.796;2023-01-27T02:44:59;101622.84;;;6.16;100.00
20368;BME280;10343;52.402;9.796;2023-01-27T02:47:29;101617.78;;;6.38;100.00
20368;BME280;10343;52.402;9.796;2023-01-27T02:50:02;101632.44;;;6.14;100.00
20368;BME280;10343;52.402;9.796;2023-01-27T02:52:39;101632.56;;;6.25;100.00
20368;BME280;10343;52.402;9.796;2023-01-27T02:55:10;101636.81;;;6.10;100.00
20368;BME280;10343;52.402;9.796;2023-01-27T02:57:42;101628.91;;;6.09;100.00
20368;BME280;10343;52.402;9.796;2023-01-27T03:00:32;101635.16;;;6.20;100.00
20368;BME280;10343;52.402;9.796;2023-01-27T03:03:03;101652.06;;;6.44;100.00
20368;BME280;10343;52.402;9.796;2023-01-27T03:05:31;101657.59;;;6.75;100.00
20368;BME280;10343;52.402;9.796;2023-01-27T03:08:00;101653.16;;;6.71;100.00
20368;BME280;10343;52.402;9.796;2023-01-27T03:10:33;101653.16;;;6.68;100.00
20368;BME280;10343;52.402;9.796;2023-01-27T03:13:05;101652.09;;;6.47;100.00
20368;BME280;10343;52.402;9.796;2023-01-27T03:15:38;101647.50;;;6.27;100.00
20368;BME280;10343;52.402;9.796;2023-01-27T03:18:28;101655.88;;;6.77;100.00
20368;BME280;10343;52.402;9.796;2023-01-27T03:21:00;101672.63;;;6.84;100.00
20368;BME280;10343;52.402;9.796;2023-01-27T03:23:33;101665.19;;;6.38;100.00
20368;BME280;10343;52.402;9.796;2023-01-27T03:26:06;101668.72;;;6.43;100.00
20368;BME280;10343;52.402;9.796;2023-01-27T03:28:46;101663.81;;;6.82;100.00
20368;BME280;10343;52.402;9.796;2023-01-27T03:31:41;101669.88;;;6.70;100.00
20368;BME280;10343;52.402;9.796;2023-01-27T03:34:13;101668.03;;;6.61;100.00
20368;BME280;10343;52.402;9.796;2023-01-27T03:36:46;101665.34;;;6.53;100.00
20368;BME280;10343;52.402;9.796;2023-01-27T03:39:36;101649.53;;;6.56;100.00
20368;BME280;10343;52.402;9.796;2023-01-27T03:42:33;101664.53;;;6.65;100.00
20368;BME280;10343;52.402;9.796;2023-01-27T03:45:21;101660.31;;;6.84;100.00
20368;BME280;10343;52.402;9.796;2023-01-27T03:48:08;101669.63;;;6.43;100.00
20368;BME280;10343;52.402;9.796;2023-01-27T03:50:37;101650.38;;;6.51;100.00
20368;BME280;10343;52.402;9.796;2023-01-27T03:53:10;101657.44;;;6.56;100.00
20368;BME280;10343;52.402;9.796;2023-01-27T03:55:40;101653.09;;;6.58;100.00
20368;BME280;10343;52.402;9.796;2023-01-27T03:58:17;101649.75;;;6.84;100.00
20368;BME280;10343;52.402;9.796;2023-01-27T04:00:52;101663.31;;;6.27;100.00
20368;BME280;10343;52.402;9.796;2023-01-27T04:03:24;101656.63;;;6.67;100.00
20368;BME280;10343;52.402;9.796;2023-01-27T04:06:13;101663.84;;;6.86;100.00
20368;BME280;10343;52.402;9.796;2023-01-27T04:08:59;101666.16;;;6.48;100.00
20368;BME280;10343;52.402;9.796;2023-01-27T04:11:29;101655.03;;;6.81;100.00
20368;BME280;10343;52.402;9.796;2023-01-27T04:14:15;101673.66;;;7.07;100.00
20368;BME280;10343;52.402;9.796;2023-01-27T04:16:46;101681.56;;;7.03;100.00
20368;BME280;10343;52.402;9.796;2023-01-27T04:19:15;101679.97;;;7.26;100.00
20368;BME280;10343;52.402;9.796;2023-01-27T04:21:44;101676.19;;;6.90;100.00
20368;BME280;10343;52.402;9.796;2023-01-27T04:24:14;101683.38;;;7.13;100.00
20368;BME280;10343;52.402;9.796;2023-01-27T04:26:56;101671.59;;;6.68;100.00
20368;BME280;10343;52.402;9.796;2023-01-27T04:29:28;101680.56;;;6.90;100.00
20368;BME280;10343;52.402;9.796;2023-01-27T04:31:58;101675.88;;;6.56;100.00
20368;BME280;10343;52.402;9.796;2023-01-27T04:34:28;101680.56;;;6.88;100.00
20368;BME280;10343;52.402;9.796;2023-01-27T04:36:57;101694.75;;;7.06;100.00
20368;BME280;10343;52.402;9.796;2023-01-27T04:39:29;101686.34;;;6.49;100.00
20368;BME280;10343;52.402;9.796;2023-01-27T04:41:58;101681.53;;;6.07;100.00
20368;BME280;10343;52.402;9.796;2023-01-27T04:44:29;101683.28;;;6.08;100.00
20368;BME280;10343;52.402;9.796;2023-01-27T04:47:00;101680.34;;;6.65;100.00
20368;BME280;10343;52.402;9.796;2023-01-27T04:49:32;101698.81;;;6.67;100.00
20368;BME280;10343;52.402;9.796;2023-01-27T04:52:01;101692.75;;;6.74;100.00
20368;BME280;10343;52.402;9.796;2023-01-27T04:54:30;101693.47;;;6.54;100.00
20368;BME280;10343;52.402;9.796;2023-01-27T04:57:04;101702.22;;;6.53;100.00
20368;BME280;10343;52.402;9.796;2023-01-27T04:59:34;101693.50;;;6.63;100.00
20368;BME280;10343;52.402;9.796;2023-01-27T05:02:05;101703.41;;;6.88;100.00
20368;BME280;10343;52.402;9.796;2023-01-27T05:04:34;101705.66;;;6.46;100.00
20368;BME280;10343;52.402;9.796;2023-01-27T05:07:02;101703.09;;;6.54;100.00
20368;BME280;10343;52.402;9.796;2023-01-27T05:09:31;101712.09;;;6.79;100.00
20368;BME280;10343;52.402;9.796;2023-01-27T05:12:00;101721.66;;;6.66;100.00
20368;BME280;10343;52.402;9.796;2023-01-27T05:14:30;101718.16;;;6.69;100.00
20368;BME280;10343;52.402;9.796;2023-01-27T05:16:58;101729.66;;;6.77;100.00
20368;BME280;10343;52.402;9.796;2023-01-27T05:19:28;101732.31;;;6.77;100.00
20368;BME280;10343;52.402;9.796;2023-01-27T05:21:57;101725.03;;;6.51;100.00
20368;BME280;10343;52.402;9.796;2023-01-27T05:24:26;101727.06;;;6.80;100.00
20368;BME280;10343;52.402;9.796;2023-01-27T05:26:55;101732.53;;;7.02;100.00
20368;BME280;10343;52.402;9.796;2023-01-27T05:29:23;101730.50;;;6.73;100.00
20368;BME280;10343;52.402;9.796;2023-01-27T05:31:52;101733.16;;;6.76;100.00
20368;BME280;10343;52.402;9.796;2023-01-27T05:34:20;101738.56;;;6.91;100.00
20368;BME280;10343;52.402;9.796;2023-01-27T05:36:50;101723.47;;;6.72;100.00
20368;BME280;10343;52.402;9.796;2023-01-27T05:39:18;101723.19;;;6.45;100.00
20368;BME280;10343;52.402;9.796;2023-01-27T05:41:46;101725.28;;;6.79;100.00
20368;BME280;10343;52.402;9.796;2023-01-27T05:44:15;101723.28;;;6.50;100.00
20368;BME280;10343;52.402;9.796;2023-01-27T05:46:44;101728.84;;;6.84;100.00
20368;BME280;10343;52.402;9.796;2023-01-27T05:49:12;101728.72;;;6.69;100.00
20368;BME280;10343;52.402;9.796;2023-01-27T05:51:42;101734.09;;;6.78;100.00
20368;BME280;10343;52.402;9.796;2023-01-27T05:54:12;101733.84;;;6.56;100.00
20368;BME280;10343;52.402;9.796;2023-01-27T05:56:42;101738.44;;;6.76;100.00
20368;BME280;10343;52.402;9.796;2023-01-27T05:59:11;101743.84;;;6.91;100.00
20368;BME280;10343;52.402;9.796;2023-01-27T06:01:40;101741.09;;;6.79;100.00
20368;BME280;10343;52.402;9.796;2023-01-27T06:04:10;101751.84;;;7.01;100.00
20368;BME280;10343;52.402;9.796;2023-01-27T06:06:40;101740.91;;;6.59;100.00
20368;BME280;10343;52.402;9.796;2023-01-27T06:09:08;101747.03;;;6.55;100.00
20368;BME280;10343;52.402;9.796;2023-01-27T06:11:38;101750.06;;;7.00;100.00
20368;BME280;10343;52.402;9.796;2023-01-27T06:14:06;101748.22;;;6.86;100.00
20368;BME280;10343;52.402;9.796;2023-01-27T06:16:34;101753.03;;;6.43;100.00
20368;BME280;10343;52.402;9.796;2023-01-27T06:19:02;101754.06;;;6.54;100.00
20368;BME280;10343;52.402;9.796;2023-01-27T06:21:30;101747.56;;;6.24;100.00
20368;BME280;10343;52.402;9.796;2023-01-27T06:23:58;101747.19;;;6.73;100.00
20368;BME280;10343;52.402;9.796;2023-01-27T06:26:26;101754.56;;;7.10;100.00
20368;BME280;10343;52.402;9.796;2023-01-27T06:28:57;101763.91;;;6.74;100.00
20368;BME280;10343;52.402;9.796;2023-01-27T06:31:26;101764.88;;;6.84;100.00
20368;BME280;10343;52.402;9.796;2023-01-27T06:33:54;101762.97;;;6.67;100.00
20368;BME280;10343;52.402;9.796;2023-01-27T06:36:37;101767.50;;;6.82;100.00
20368;BME280;10343;52.402;9.796;2023-01-27T06:39:06;101757.09;;;6.97;100.00
20368;BME280;10343;52.402;9.796;2023-01-27T06:41:35;101764.19;;;7.08;100.00
20368;BME280;10343;52.402;9.796;2023-01-27T06:44:06;101780.84;;;7.02;100.00
20368;BME280;10343;52.402;9.796;2023-01-27T06:46:34;101764.69;;;6.65;100.00
20368;BME280;10343;52.402;9.796;2023-01-27T06:49:02;101769.47;;;7.05;100.00
20368;BME280;10343;52.402;9.796;2023-01-27T06:51:31;101772.81;;;6.88;100.00
20368;BME280;10343;52.402;9.796;2023-01-27T06:53:59;101774.69;;;6.99;100.00
20368;BME280;10343;52.402;9.796;2023-01-27T06:56:27;101777.28;;;6.95;100.00
20368;BME280;10343;52.402;9.796;2023-01-27T06:58:55;101784.31;;;6.96;100.00
20368;BME280;10343;52.402;9.796;2023-01-27T07:01:24;101784.63;;;7.29;100.00
20368;BME280;10343;52.402;9.796;2023-01-27T07:03:53;101797.16;;;7.58;100.00
20368;BME280;10343;52.402;9.796;2023-01-27T07:06:22;101799.50;;;7.19;100.00
20368;BME280;10343;52.402;9.796;2023-01-27T07:08:50;101798.44;;;7.00;100.00
20368;BME280;10343;52.402;9.796;2023-01-27T07:11:21;101801.63;;;6.68;100.00
20368;BME280;10343;52.402;9.796;2023-01-27T07:13:51;101799.84;;;6.64;100.00
20368;BME280;10343;52.402;9.796;2023-01-27T07:16:19;101799.69;;;6.50;100.00
20368;BME280;10343;52.402;9.796;2023-01-27T07:18:49;101812.66;;;6.35;100.00
20368;BME280;10343;52.402;9.796;2023-01-27T07:21:17;101814.81;;;6.70;100.00
20368;BME280;10343;52.402;9.796;2023-01-27T07:23:44;101811.09;;;6.52;100.00
20368;BME280;10343;52.402;9.796;2023-01-27T07:26:12;101808.97;;;6.20;100.00
20368;BME280;10343;52.402;9.796;2023-01-27T07:28:51;101812.63;;;6.33;100.00
20368;BME280;10343;52.402;9.796;2023-01-27T07:31:18;101811.63;;;6.22;100.00
20368;BME280;10343;52.402;9.796;2023-01-27T07:33:47;101817.03;;;6.34;100.00
20368;BME280;10343;52.402;9.796;2023-01-27T07:36:16;101824.09;;;6.37;100.00
20368;BME280;10343;52.402;9.796;2023-01-27T07:38:43;101836.66;;;6.59;100.00
20368;BME280;10343;52.402;9.796;2023-01-27T07:41:11;101844.53;;;6.56;100.00
20368;BME280;10343;52.402;9.796;2023-01-27T07:43:39;101854.69;;;6.25;100.00
20368;BME280;10343;52.402;9.796;2023-01-27T07:46:07;101844.47;;;6.50;100.00
20368;BME280;10343;52.402;9.796;2023-01-27T07:48:35;101850.59;;;6.49;100.00
20368;BME280;10343;52.402;9.796;2023-01-27T07:51:03;101856.69;;;6.45;100.00
20368;BME280;10343;52.402;9.796;2023-01-27T07:53:32;101859.00;;;6.20;100.00
20368;BME280;10343;52.402;9.796;2023-01-27T07:56:00;101871.59;;;6.43;100.00
20368;BME280;10343;52.402;9.796;2023-01-27T07:58:28;101869.78;;;6.40;100.00
20368;BME280;10343;52.402;9.796;2023-01-27T08:00:55;101868.19;;;6.52;100.00
20368;BME280;10343;52.402;9.796;2023-01-27T08:03:24;101887.03;;;6.87;100.00
20368;BME280;10343;52.402;9.796;2023-01-27T08:05:53;101892.31;;;6.87;100.00
20368;BME280;10343;52.402;9.796;2023-01-27T08:08:20;101885.72;;;6.50;100.00
20368;BME280;10343;52.402;9.796;2023-01-27T08:10:49;101891.41;;;6.82;100.00
20368;BME280;10343;52.402;9.796;2023-01-27T08:13:20;101892.00;;;6.59;100.00
20368;BME280;10343;52.402;9.796;2023-01-27T08:15:54;101896.44;;;6.63;100.00
20368;BME280;10343;52.402;9.796;2023-01-27T08:18:22;101902.53;;;6.59;100.00
20368;BME280;10343;52.402;9.796;2023-01-27T08:20:50;101904.97;;;6.42;100.00
20368;BME280;10343;52.402;9.796;2023-01-27T08:23:20;101916.25;;;7.04;100.00
20368;BME280;10343;52.402;9.796;2023-01-27T08:25:50;101916.97;;;6.91;100.00
20368;BME280;10343;52.402;9.796;2023-01-27T08:28:19;101932.66;;;6.80;100.00
20368;BME280;10343;52.402;9.796;2023-01-27T08:30:47;101923.75;;;6.69;100.00
20368;BME280;10343;52.402;9.796;2023-01-27T08:33:17;101919.72;;;7.00;100.00
20368;BME280;10343;52.402;9.796;2023-01-27T08:35:46;101927.50;;;6.89;99.92
20368;BME280;10343;52.402;9.796;2023-01-27T08:38:17;101940.56;;;6.78;100.00
20368;BME280;10343;52.402;9.796;2023-01-27T08:40:45;101944.88;;;6.72;100.00
20368;BME280;10343;52.402;9.796;2023-01-27T08:43:15;101947.94;;;7.09;98.46
20368;BME280;10343;52.402;9.796;2023-01-27T08:45:43;101965.94;;;6.72;97.49
20368;BME280;10343;52.402;9.796;2023-01-27T08:48:12;101939.69;;;6.78;100.00
20368;BME280;10343;52.402;9.796;2023-01-27T08:50:40;101949.91;;;6.53;100.00
20368;BME280;10343;52.402;9.796;2023-01-27T08:53:09;101952.03;;;6.82;100.00
20368;BME280;10343;52.402;9.796;2023-01-27T08:55:37;101955.59;;;6.87;100.00
20368;BME280;10343;52.402;9.796;2023-01-27T08:58:05;101957.44;;;6.93;100.00
20368;BME280;10343;52.402;9.796;2023-01-27T09:00:34;101954.16;;;7.11;100.00
20368;BME280;10343;52.402;9.796;2023-01-27T09:03:02;101963.72;;;7.03;98.36
20368;BME280;10343;52.402;9.796;2023-01-27T09:05:30;101962.78;;;6.97;99.17
20368;BME280;10343;52.402;9.796;2023-01-27T09:07:58;101981.06;;;7.60;95.49
20368;BME280;10343;52.402;9.796;2023-01-27T09:10:26;101969.41;;;6.68;99.65
20368;BME280;10343;52.402;9.796;2023-01-27T09:12:54;101979.16;;;6.75;97.72
20368;BME280;10343;52.402;9.796;2023-01-27T09:15:22;101985.75;;;6.42;99.09
20368;BME280;10343;52.402;9.796;2023-01-27T09:17:51;101974.59;;;6.61;99.49
20368;BME280;10343;52.402;9.796;2023-01-27T09:20:19;101994.44;;;7.01;98.84
20368;BME280;10343;52.402;9.796;2023-01-27T09:22:48;101990.25;;;7.18;97.93
20368;BME280;10343;52.402;9.796;2023-01-27T09:25:16;101995.44;;;7.12;97.99
20368;BME280;10343;52.402;9.796;2023-01-27T09:27:44;101994.38;;;7.74;94.80
20368;BME280;10343;52.402;9.796;2023-01-27T09:30:14;102002.22;;;7.67;91.56
20368;BME280;10343;52.402;9.796;2023-01-27T09:32:42;102000.94;;;7.27;92.23
20368;BME280;10343;52.402;9.796;2023-01-27T09:35:12;102003.63;;;7.34;91.00
20368;BME280;10343;52.402;9.796;2023-01-27T09:37:43;102006.63;;;6.92;92.72
20368;BME280;10343;52.402;9.796;2023-01-27T09:40:18;102011.38;;;7.20;91.10
20368;BME280;10343;52.402;9.796;2023-01-27T09:43:08;102004.00;;;7.68;90.04
20368;BME280;10343;52.402;9.796;2023-01-27T09:45:47;102017.91;;;7.51;88.87
20368;BME280;10343;52.402;9.796;2023-01-27T09:48:32;102013.56;;;6.84;92.49
20368;BME280;10343;52.402;9.796;2023-01-27T09:51:12;102016.09;;;7.47;90.04
20368;BME280;10343;52.402;9.796;2023-01-27T09:53:54;102020.06;;;7.92;87.91
20368;BME280;10343;52.402;9.796;2023-01-27T09:56:40;102008.94;;;7.37;90.08
20368;BME280;10343;52.402;9.796;2023-01-27T09:59:20;102019.53;;;8.33;86.17
20368;BME280;10343;52.402;9.796;2023-01-27T10:02:00;102032.69;;;8.27;83.90
20368;BME280;10343;52.402;9.796;2023-01-27T10:07:54;102020.38;;;8.29;83.62
20368;BME280;10343;52.402;9.796;2023-01-27T10:10:43;102019.75;;;8.63;82.29
20368;BME280;10343;52.402;9.796;2023-01-27T10:13:22;102036.91;;;8.07;80.34
20368;BME280;10343;52.402;9.796;2023-01-27T10:16:04;102025.63;;;8.25;82.84
20368;BME280;10343;52.402;9.796;2023-01-27T10:18:52;102024.88;;;8.41;82.80
20368;BME280;10343;52.402;9.796;2023-01-27T10:21:32;102031.09;;;7.51;83.16
20368;BME280;10343;52.402;9.796;2023-01-27T10:24:12;102016.25;;;7.62;84.14
20368;BME280;10343;52.402;9.796;2023-01-27T10:26:49;102012.41;;;8.26;82.22
20368;BME280;10343;52.402;9.796;2023-01-27T10:29:22;102020.31;;;8.20;79.47
20368;BME280;10343;52.402;9.796;2023-01-27T10:31:55;102015.69;;;7.97;80.77
20368;BME280;10343;52.402;9.796;2023-01-27T10:34:26;102026.53;;;8.25;79.46
20368;BME280;10343;52.402;9.796;2023-01-27T10:37:08;102029.75;;;7.93;80.48
20368;BME280;10343;52.402;9.796;2023-01-27T10:39:44;102029.19;;;8.28;79.63
20368;BME280;10343;52.402;9.796;2023-01-27T10:42:24;102029.00;;;8.07;80.13
20368;BME280;10343;52.402;9.796;2023-01-27T10:45:09;102031.63;;;8.05;80.81
20368;BME280;10343;52.402;9.796;2023-01-27T10:47:53;102043.63;;;7.72;80.00
20368;BME280;10343;52.402;9.796;2023-01-27T10:50:27;102044.69;;;7.88;80.24
20368;BME280;10343;52.402;9.796;2023-01-27T10:53:00;102039.09;;;7.59;83.17
20368;BME280;10343;52.402;9.796;2023-01-27T10:55:37;102046.41;;;7.86;81.29
20368;BME280;10343;52.402;9.796;2023-01-27T10:58:12;102041.19;;;7.92;81.85
20368;BME280;10343;52.402;9.796;2023-01-27T11:00:45;102048.06;;;7.75;80.48
20368;BME280;10343;52.402;9.796;2023-01-27T11:03:39;102046.47;;;7.89;80.30
20368;BME280;10343;52.402;9.796;2023-01-27T11:06:11;102045.25;;;7.58;82.58
20368;BME280;10343;52.402;9.796;2023-01-27T11:08:44;102042.53;;;7.50;82.81
20368;BME280;10343;52.402;9.796;2023-01-27T11:11:16;102049.16;;;7.97;77.95
20368;BME280;10343;52.402;9.796;2023-01-27T11:14:11;102044.16;;;7.39;81.43
20368;BME280;10343;52.402;9.796;2023-01-27T11:16:42;102050.31;;;7.39;80.21
20368;BME280;10343;52.402;9.796;2023-01-27T11:19:21;102050.69;;;7.72;80.97
20368;BME280;10343;52.402;9.796;2023-01-27T11:21:52;102041.78;;;7.60;80.98
20368;BME280;10343;52.402;9.796;2023-01-27T11:24:41;102043.66;;;7.75;80.46
20368;BME280;10343;52.402;9.796;2023-01-27T11:27:18;102039.97;;;7.58;81.33
20368;BME280;10343;52.402;9.796;2023-01-27T11:29:53;102042.16;;;7.19;83.10
20368;BME280;10343;52.402;9.796;2023-01-27T11:32:32;102037.13;;;6.72;83.75
20368;BME280;10343;52.402;9.796;2023-01-27T11:35:05;102043.97;;;7.23;83.24
20368;BME280;10343;52.402;9.796;2023-01-27T11:37:37;102039.44;;;7.91;80.50
20368;BME280;10343;52.402;9.796;2023-01-27T11:40:13;102051.03;;;8.09;78.12
20368;BME280;10343;52.402;9.796;2023-01-27T11:42:44;102044.84;;;8.07;77.98
20368;BME280;10343;52.402;9.796;2023-01-27T11:45:14;102055.66;;;7.44;78.44
20368;BME280;10343;52.402;9.796;2023-01-27T11:47:43;102050.56;;;6.90;81.17
20368;BME280;10343;52.402;9.796;2023-01-27T11:50:13;102049.28;;;7.26;79.98
20368;BME280;10343;52.402;9.796;2023-01-27T11:52:44;102047.78;;;7.50;78.58
20368;BME280;10343;52.402;9.796;2023-01-27T11:55:17;102044.22;;;7.45;78.92
20368;BME280;10343;52.402;9.796;2023-01-27T11:57:50;102045.88;;;7.37;79.84
20368;BME280;10343;52.402;9.796;2023-01-27T12:00:21;102038.31;;;7.69;77.87
20368;BME280;10343;52.402;9.796;2023-01-27T12:02:54;102038.75;;;7.29;79.92
20368;BME280;10343;52.402;9.796;2023-01-27T12:05:29;102033.03;;;6.95;80.09
20368;BME280;10343;52.402;9.796;2023-01-27T12:07:59;102040.38;;;7.18;80.12
20368;BME280;10343;52.402;9.796;2023-01-27T12:10:29;102030.19;;;7.49;78.75
20368;BME280;10343;52.402;9.796;2023-01-27T12:13:07;102034.00;;;7.02;79.04
20368;BME280;10343;52.402;9.796;2023-01-27T12:15:36;102041.84;;;7.71;76.83
20368;BME280;10343;52.402;9.796;2023-01-27T12:18:14;102035.75;;;6.99;78.76
20368;BME280;10343;52.402;9.796;2023-01-27T12:20:44;102035.59;;;7.61;77.89
20368;BME280;10343;52.402;9.796;2023-01-27T12:23:20;102035.69;;;7.68;76.41
20368;BME280;10343;52.402;9.796;2023-01-27T12:25:52;102040.72;;;7.49;76.61
20368;BME280;10343;52.402;9.796;2023-01-27T12:28:29;102020.66;;;7.62;76.10
20368;BME280;10343;52.402;9.796;2023-01-27T12:31:04;102032.50;;;8.06;73.28
20368;BME280;10343;52.402;9.796;2023-01-27T12:33:36;102022.41;;;7.63;75.78
20368;BME280;10343;52.402;9.796;2023-01-27T12:36:11;102023.81;;;7.30;75.48
20368;BME280;10343;52.402;9.796;2023-01-27T12:38:44;102029.16;;;7.35;75.89
20368;BME280;10343;52.402;9.796;2023-01-27T12:41:21;102028.44;;;7.48;75.73
20368;BME280;10343;52.402;9.796;2023-01-27T12:43:53;102022.81;;;7.20;75.33
20368;BME280;10343;52.402;9.796;2023-01-27T12:46:24;102025.72;;;7.43;75.42
20368;BME280;10343;52.402;9.796;2023-01-27T12:48:59;102018.81;;;7.55;75.48
20368;BME280;10343;52.402;9.796;2023-01-27T12:51:37;102027.16;;;7.95;73.31
20368;BME280;10343;52.402;9.796;2023-01-27T12:54:18;102023.59;;;7.91;72.91
20368;BME280;10343;52.402;9.796;2023-01-27T12:56:47;102023.56;;;7.90;72.74
20368;BME280;10343;52.402;9.796;2023-01-27T12:59:18;102021.78;;;7.87;72.21
20368;BME280;10343;52.402;9.796;2023-01-27T13:01:57;102024.34;;;7.79;74.04
20368;BME280;10343;52.402;9.796;2023-01-27T13:04:26;102030.44;;;7.74;73.60
20368;BME280;10343;52.402;9.796;2023-01-27T13:06:56;102021.22;;;7.31;76.09
20368;BME280;10343;52.402;9.796;2023-01-27T13:09:33;102017.66;;;7.29;77.14
20368;BME280;10343;52.402;9.796;2023-01-27T13:12:15;102017.91;;;7.51;76.90
20368;BME280;10343;52.402;9.796;2023-01-27T13:14:52;102021.50;;;7.58;76.72
20368;BME280;10343;52.402;9.796;2023-01-27T13:17:29;102020.25;;;7.25;77.01
20368;BME280;10343;52.402;9.796;2023-01-27T13:19:59;102021.88;;;7.15;78.07
20368;BME280;10343;52.402;9.796;2023-01-27T13:22:31;102024.38;;;7.03;79.36
20368;BME280;10343;52.402;9.796;2023-01-27T13:25:03;102028.22;;;7.32;78.64
20368;BME280;10343;52.402;9.796;2023-01-27T13:27:37;102019.69;;;6.82;79.96
20368;BME280;10343;52.402;9.796;2023-01-27T13:30:15;102026.25;;;7.13;77.43
20368;BME280;10343;52.402;9.796;2023-01-27T13:32:48;102027.16;;;7.13;77.54
20368;BME280;10343;52.402;9.796;2023-01-27T13:35:23;102028.16;;;7.25;77.36